sensor_id;sensor_type;location;lat;lon;timestamp;pressure;altitude;pressure_sealevel;temperature;humidity
10587;BME280;5341;47.606;7.576;2023-11-19T00:00:53;99023.22;;;10.22;73.50
10587;BME280;5341;47.606;7.576;2023-11-19T00:03:21;99033.06;;;10.22;73.02
10587;BME280;5341;47.606;7.576;2023-11-19T00:05:48;99042.06;;;10.21;73.52
10587;BME280;5341;47.606;7.576;2023-11-19T00:08:16;99032.25;;;10.21;72.72
10587;BME280;5341;47.606;7.576;2023-11-19T00:10:43;99032.25;;;10.21;73.19
10587;BME280;5341;47.606;7.576;2023-11-19T00:13:12;99033.22;;;10.20;73.10
10587;BME280;5341;47.606;7.576;2023-11-19T00:15:42;99027.88;;;10.20;72.75
10587;BME280;5341;47.606;7.576;2023-11-19T00:18:11;99013.69;;;10.20;73.07
10587;BME280;5341;47.606;7.576;2023-11-19T00:20:38;99003.81;;;10.20;73.51
10587;BME280;5341;47.606;7.576;2023-11-19T00:23:06;99003.81;;;10.20;72.78
10587;BME280;5341;47.606;7.576;2023-11-19T00:25:33;98996.81;;;10.19;72.81
10587;BME280;5341;47.606;7.576;2023-11-19T00:28:01;98995.81;;;10.20;73.45
10587;BME280;5341;47.606;7.576;2023-11-19T00:30:28;98988.63;;;10.21;73.47
10587;BME280;5341;47.606;7.576;2023-11-19T00:32:58;98989.47;;;10.21;72.83
10587;BME280;5341;47.606;7.576;2023-11-19T00:35:26;98987.63;;;10.22;73.44
10587;BME280;5341;47.606;7.576;2023-11-19T00:37:53;98997.31;;;10.23;73.38
10587;BME280;5341;47.606;7.576;2023-11-19T00:40:21;99000.00;;;10.23;72.86
10587;BME280;5341;47.606;7.576;2023-11-19T00:42:49;98994.47;;;10.24;73.14
10587;BME280;5341;47.606;7.576;2023-11-19T00:45:16;98990.97;;;10.24;72.67
10587;BME280;5341;47.606;7.576;2023-11-19T00:47:44;98995.31;;;10.25;73.18
10587;BME280;5341;47.606;7.576;2023-11-19T00:50:13;98981.75;;;10.26;73.05
10587;BME280;5341;47.606;7.576;2023-11-19T00:52:40;99005.81;;;10.26;73.63
10587;BME280;5341;47.606;7.576;2023-11-19T00:55:08;98999.63;;;10.26;73.29
10587;BME280;5341;47.606;7.576;2023-11-19T00:57:36;99005.81;;;10.26;73.29
10587;BME280;5341;47.606;7.576;2023-11-19T01:00:04;98995.97;;;10.27;73.65
10587;BME280;5341;47.606;7.576;2023-11-19T01:02:35;99000.28;;;10.28;73.46
10587;BME280;5341;47.606;7.576;2023-11-19T01:05:03;98992.28;;;10.28;73.40
10587;BME280;5341;47.606;7.576;2023-11-19T01:07:33;98969.06;;;10.28;73.71
10587;BME280;5341;47.606;7.576;2023-11-19T01:10:00;98960.03;;;10.30;73.92
10587;BME280;5341;47.606;7.576;2023-11-19T01:12:28;98950.34;;;10.28;73.46
10587;BME280;5341;47.606;7.576;2023-11-19T01:14:57;98951.84;;;10.31;73.72
10587;BME280;5341;47.606;7.576;2023-11-19T01:17:24;98925.13;;;10.31;73.96
10587;BME280;5341;47.606;7.576;2023-11-19T01:19:52;98937.47;;;10.32;73.95
10587;BME280;5341;47.606;7.576;2023-11-19T01:22:20;98934.63;;;10.34;74.23
10587;BME280;5341;47.606;7.576;2023-11-19T01:24:49;98929.94;;;10.36;73.92
10587;BME280;5341;47.606;7.576;2023-11-19T01:27:18;98923.75;;;10.35;74.25
10587;BME280;5341;47.606;7.576;2023-11-19T01:29:45;98911.22;;;10.36;73.92
10587;BME280;5341;47.606;7.576;2023-11-19T01:32:12;98912.88;;;10.37;74.38
10587;BME280;5341;47.606;7.576;2023-11-19T01:34:41;98922.56;;;10.38;74.30
10587;BME280;5341;47.606;7.576;2023-11-19T01:37:09;98921.72;;;10.37;74.00
10587;BME280;5341;47.606;7.576;2023-11-19T01:39:38;98934.91;;;10.39;74.24
10587;BME280;5341;47.606;7.576;2023-11-19T01:42:07;98935.75;;;10.39;74.77
10587;BME280;5341;47.606;7.576;2023-11-19T01:44:34;98940.25;;;10.39;74.32
10587;BME280;5341;47.606;7.576;2023-11-19T01:47:02;98936.75;;;10.38;74.91
10587;BME280;5341;47.606;7.576;2023-11-19T01:49:31;98938.41;;;10.39;74.78
10587;BME280;5341;47.606;7.576;2023-11-19T01:52:00;98943.94;;;10.38;74.84
10587;BME280;5341;47.606;7.576;2023-11-19T01:54:28;98950.94;;;10.39;74.73
10587;BME280;5341;47.606;7.576;2023-11-19T01:56:57;98952.78;;;10.38;73.95
10587;BME280;5341;47.606;7.576;2023-11-19T01:59:26;98953.81;;;10.37;74.04
10587;BME280;5341;47.606;7.576;2023-11-19T02:01:54;98953.81;;;10.37;74.62
10587;BME280;5341;47.606;7.576;2023-11-19T02:04:23;98959.97;;;10.38;74.13
10587;BME280;5341;47.606;7.576;2023-11-19T02:06:51;98964.50;;;10.37;74.12
10587;BME280;5341;47.606;7.576;2023-11-19T02:09:21;98959.97;;;10.38;73.93
10587;BME280;5341;47.606;7.576;2023-11-19T02:11:48;98951.13;;;10.37;74.57
10587;BME280;5341;47.606;7.576;2023-11-19T02:14:17;98956.47;;;10.37;74.26
10587;BME280;5341;47.606;7.576;2023-11-19T02:16:47;98944.94;;;10.37;74.63
10587;BME280;5341;47.606;7.576;2023-11-19T02:19:15;98935.09;;;10.37;74.56
10587;BME280;5341;47.606;7.576;2023-11-19T02:21:42;98941.28;;;10.38;74.49
10587;BME280;5341;47.606;7.576;2023-11-19T02:24:11;98952.78;;;10.38;74.00
10587;BME280;5341;47.606;7.576;2023-11-19T02:26:49;98940.25;;;10.39;74.20
10587;BME280;5341;47.606;7.576;2023-11-19T02:29:19;98935.75;;;10.39;74.27
10587;BME280;5341;47.606;7.576;2023-11-19T02:31:46;98925.06;;;10.39;74.45
10587;BME280;5341;47.606;7.576;2023-11-19T02:34:14;98928.56;;;10.40;74.68
10587;BME280;5341;47.606;7.576;2023-11-19T02:36:42;98931.03;;;10.41;74.00
10587;BME280;5341;47.606;7.576;2023-11-19T02:39:09;98930.91;;;10.43;74.52
10587;BME280;5341;47.606;7.576;2023-11-19T02:41:37;98928.22;;;10.43;74.80
10587;BME280;5341;47.606;7.576;2023-11-19T02:44:06;98922.03;;;10.42;74.27
10587;BME280;5341;47.606;7.576;2023-11-19T02:46:35;98924.72;;;10.42;74.48
10587;BME280;5341;47.606;7.576;2023-11-19T02:49:02;98925.56;;;10.43;74.48
10587;BME280;5341;47.606;7.576;2023-11-19T02:51:31;98927.22;;;10.44;74.86
10587;BME280;5341;47.606;7.576;2023-11-19T02:54:00;98933.38;;;10.44;74.84
10587;BME280;5341;47.606;7.576;2023-11-19T02:56:29;98940.56;;;10.44;74.81
10587;BME280;5341;47.606;7.576;2023-11-19T02:59:01;98943.25;;;10.44;75.02
10587;BME280;5341;47.606;7.576;2023-11-19T03:01:35;98938.91;;;10.43;74.78
10587;BME280;5341;47.606;7.576;2023-11-19T03:04:03;98935.22;;;10.44;75.07
10587;BME280;5341;47.606;7.576;2023-11-19T03:06:30;98929.88;;;10.44;74.58
10587;BME280;5341;47.606;7.576;2023-11-19T03:08:58;98921.03;;;10.43;74.87
10587;BME280;5341;47.606;7.576;2023-11-19T03:11:31;98918.38;;;10.43;74.60
10587;BME280;5341;47.606;7.576;2023-11-19T03:13:59;98920.03;;;10.44;74.73
10587;BME280;5341;47.606;7.576;2023-11-19T03:16:27;98918.38;;;10.43;74.07
10587;BME280;5341;47.606;7.576;2023-11-19T03:18:55;98934.22;;;10.45;74.65
10587;BME280;5341;47.606;7.576;2023-11-19T03:21:27;98934.22;;;10.45;74.94
10587;BME280;5341;47.606;7.576;2023-11-19T03:23:55;98936.91;;;10.45;74.43
10587;BME280;5341;47.606;7.576;2023-11-19T03:26:26;98937.72;;;10.45;74.82
10587;BME280;5341;47.606;7.576;2023-11-19T03:28:53;98920.66;;;10.46;74.99
10587;BME280;5341;47.606;7.576;2023-11-19T03:31:22;98917.00;;;10.47;75.11
10587;BME280;5341;47.606;7.576;2023-11-19T03:33:51;98925.00;;;10.47;74.90
10587;BME280;5341;47.606;7.576;2023-11-19T03:36:21;98933.84;;;10.48;74.51
10587;BME280;5341;47.606;7.576;2023-11-19T03:38:49;98948.06;;;10.48;74.62
10587;BME280;5341;47.606;7.576;2023-11-19T03:41:19;98938.19;;;10.49;74.71
10587;BME280;5341;47.606;7.576;2023-11-19T03:43:46;98947.03;;;10.49;74.77
10587;BME280;5341;47.606;7.576;2023-11-19T03:46:18;98939.84;;;10.50;75.08
10587;BME280;5341;47.606;7.576;2023-11-19T03:48:46;98938.19;;;10.49;74.61
10587;BME280;5341;47.606;7.576;2023-11-19T03:51:14;98939.03;;;10.49;75.18
10587;BME280;5341;47.606;7.576;2023-11-19T03:53:44;98940.69;;;10.50;75.15
10587;BME280;5341;47.606;7.576;2023-11-19T03:56:12;98944.19;;;10.51;74.57
10587;BME280;5341;47.606;7.576;2023-11-19T03:58:40;98953.03;;;10.51;74.85
10587;BME280;5341;47.606;7.576;2023-11-19T04:01:11;98943.34;;;10.50;74.74
10587;BME280;5341;47.606;7.576;2023-11-19T04:03:39;98953.03;;;10.51;74.75
10587;BME280;5341;47.606;7.576;2023-11-19T04:06:07;98959.22;;;10.52;74.75
10587;BME280;5341;47.606;7.576;2023-11-19T04:08:35;98966.41;;;10.51;75.10
10587;BME280;5341;47.606;7.576;2023-11-19T04:11:05;98968.06;;;10.52;74.82
10587;BME280;5341;47.606;7.576;2023-11-19T04:13:35;98960.88;;;10.53;75.02
10587;BME280;5341;47.606;7.576;2023-11-19T04:16:04;98956.38;;;10.53;74.94
10587;BME280;5341;47.606;7.576;2023-11-19T04:18:33;98958.22;;;10.53;75.16
10587;BME280;5341;47.606;7.576;2023-11-19T04:21:01;98962.56;;;10.54;75.10
10587;BME280;5341;47.606;7.576;2023-11-19T04:23:28;98957.22;;;10.54;74.28
10587;BME280;5341;47.606;7.576;2023-11-19T04:25:56;98952.72;;;10.54;74.58
10587;BME280;5341;47.606;7.576;2023-11-19T04:28:25;98949.03;;;10.55;74.70
10587;BME280;5341;47.606;7.576;2023-11-19T04:30:54;98937.31;;;10.56;75.02
10587;BME280;5341;47.606;7.576;2023-11-19T04:33:22;98937.50;;;10.55;74.54
10587;BME280;5341;47.606;7.576;2023-11-19T04:35:51;98947.19;;;10.56;75.01
10587;BME280;5341;47.606;7.576;2023-11-19T04:38:18;98948.84;;;10.57;75.06
10587;BME280;5341;47.606;7.576;2023-11-19T04:40:46;98940.81;;;10.57;74.90
10587;BME280;5341;47.606;7.576;2023-11-19T04:43:14;98942.47;;;10.58;75.62
10587;BME280;5341;47.606;7.576;2023-11-19T04:45:43;98943.31;;;10.59;75.07
10587;BME280;5341;47.606;7.576;2023-11-19T04:48:11;98943.31;;;10.59;75.38
10587;BME280;5341;47.606;7.576;2023-11-19T04:50:39;98949.50;;;10.59;76.00
10587;BME280;5341;47.606;7.576;2023-11-19T04:53:07;98955.69;;;10.60;75.52
10587;BME280;5341;47.606;7.576;2023-11-19T04:55:34;98957.53;;;10.59;75.91
10587;BME280;5341;47.606;7.576;2023-11-19T04:58:02;98957.34;;;10.61;75.57
10587;BME280;5341;47.606;7.576;2023-11-19T05:00:29;98966.38;;;10.60;76.12
10587;BME280;5341;47.606;7.576;2023-11-19T05:02:59;98954.84;;;10.59;75.72
10587;BME280;5341;47.606;7.576;2023-11-19T05:05:26;98943.97;;;10.61;75.50
10587;BME280;5341;47.606;7.576;2023-11-19T05:07:54;98952.81;;;10.61;75.82
10587;BME280;5341;47.606;7.576;2023-11-19T05:10:22;98959.00;;;10.62;76.20
10587;BME280;5341;47.606;7.576;2023-11-19T05:12:51;98967.03;;;10.62;75.92
10587;BME280;5341;47.606;7.576;2023-11-19T05:15:19;98964.16;;;10.63;76.25
10587;BME280;5341;47.606;7.576;2023-11-19T05:17:46;98966.84;;;10.63;76.68
10587;BME280;5341;47.606;7.576;2023-11-19T05:20:15;98963.97;;;10.65;76.17
10587;BME280;5341;47.606;7.576;2023-11-19T05:22:43;98971.00;;;10.66;76.48
10587;BME280;5341;47.606;7.576;2023-11-19T05:25:11;98956.78;;;10.65;76.26
10587;BME280;5341;47.606;7.576;2023-11-19T05:27:40;98960.28;;;10.66;76.22
10587;BME280;5341;47.606;7.576;2023-11-19T05:30:08;98955.81;;;10.66;76.43
10587;BME280;5341;47.606;7.576;2023-11-19T05:32:36;98952.13;;;10.67;77.12
10587;BME280;5341;47.606;7.576;2023-11-19T05:35:05;98947.59;;;10.68;76.55
10587;BME280;5341;47.606;7.576;2023-11-19T05:37:35;98957.28;;;10.69;76.54
10587;BME280;5341;47.606;7.576;2023-11-19T05:40:05;98957.28;;;10.69;76.28
10587;BME280;5341;47.606;7.576;2023-11-19T05:42:40;98972.50;;;10.68;76.71
10587;BME280;5341;47.606;7.576;2023-11-19T05:45:08;98980.34;;;10.70;76.68
10587;BME280;5341;47.606;7.576;2023-11-19T05:47:36;98960.78;;;10.69;76.82
10587;BME280;5341;47.606;7.576;2023-11-19T05:50:05;98960.44;;;10.72;76.68
10587;BME280;5341;47.606;7.576;2023-11-19T05:52:32;98954.44;;;10.70;76.54
10587;BME280;5341;47.606;7.576;2023-11-19T05:55:02;98964.13;;;10.71;76.87
10587;BME280;5341;47.606;7.576;2023-11-19T05:57:35;98962.28;;;10.72;76.50
10587;BME280;5341;47.606;7.576;2023-11-19T06:00:04;98966.63;;;10.73;76.46
10587;BME280;5341;47.606;7.576;2023-11-19T06:02:40;98969.28;;;10.73;76.77
10587;BME280;5341;47.606;7.576;2023-11-19T06:05:08;98968.28;;;10.74;76.49
10587;BME280;5341;47.606;7.576;2023-11-19T06:07:36;98967.25;;;10.75;76.90
10587;BME280;5341;47.606;7.576;2023-11-19T06:10:07;98976.13;;;10.75;76.79
10587;BME280;5341;47.606;7.576;2023-11-19T06:12:36;98965.41;;;10.75;76.91
10587;BME280;5341;47.606;7.576;2023-11-19T06:15:05;98973.25;;;10.77;76.81
10587;BME280;5341;47.606;7.576;2023-11-19T06:17:37;98964.41;;;10.76;77.08
10587;BME280;5341;47.606;7.576;2023-11-19T06:20:06;98967.06;;;10.76;77.10
10587;BME280;5341;47.606;7.576;2023-11-19T06:22:34;98969.56;;;10.78;76.82
10587;BME280;5341;47.606;7.576;2023-11-19T06:25:03;98965.09;;;10.78;77.13
10587;BME280;5341;47.606;7.576;2023-11-19T06:27:35;98964.06;;;10.79;77.15
10587;BME280;5341;47.606;7.576;2023-11-19T06:30:03;98968.59;;;10.79;77.42
10587;BME280;5341;47.606;7.576;2023-11-19T06:32:32;98970.25;;;10.80;77.28
10587;BME280;5341;47.606;7.576;2023-11-19T06:35:03;98965.91;;;10.79;77.35
10587;BME280;5341;47.606;7.576;2023-11-19T06:37:31;98970.25;;;10.80;77.21
10587;BME280;5341;47.606;7.576;2023-11-19T06:40:01;98969.41;;;10.79;77.19
10587;BME280;5341;47.606;7.576;2023-11-19T06:42:29;98974.59;;;10.81;77.66
10587;BME280;5341;47.606;7.576;2023-11-19T06:44:58;98974.59;;;10.81;77.64
10587;BME280;5341;47.606;7.576;2023-11-19T06:47:27;98978.94;;;10.82;76.96
10587;BME280;5341;47.606;7.576;2023-11-19T06:49:54;98975.41;;;10.81;78.11
10587;BME280;5341;47.606;7.576;2023-11-19T06:52:22;98975.25;;;10.83;77.57
10587;BME280;5341;47.606;7.576;2023-11-19T06:54:51;98973.41;;;10.83;77.74
10587;BME280;5341;47.606;7.576;2023-11-19T06:57:18;98969.72;;;10.84;77.52
10587;BME280;5341;47.606;7.576;2023-11-19T06:59:46;98963.34;;;10.85;77.95
10587;BME280;5341;47.606;7.576;2023-11-19T07:02:15;98966.84;;;10.86;77.62
10587;BME280;5341;47.606;7.576;2023-11-19T07:04:43;98974.88;;;10.86;77.68
10587;BME280;5341;47.606;7.576;2023-11-19T07:07:10;98979.22;;;10.87;77.86
10587;BME280;5341;47.606;7.576;2023-11-19T07:09:38;98986.22;;;10.88;77.86
10587;BME280;5341;47.606;7.576;2023-11-19T07:12:06;98989.72;;;10.89;77.85
10587;BME280;5341;47.606;7.576;2023-11-19T07:14:33;98986.88;;;10.90;78.28
10587;BME280;5341;47.606;7.576;2023-11-19T07:17:01;98984.19;;;10.90;77.88
10587;BME280;5341;47.606;7.576;2023-11-19T07:19:30;98982.38;;;10.91;78.32
10587;BME280;5341;47.606;7.576;2023-11-19T07:21:58;98983.22;;;10.91;77.99
10587;BME280;5341;47.606;7.576;2023-11-19T07:24:25;98990.22;;;10.92;78.36
10587;BME280;5341;47.606;7.576;2023-11-19T07:26:54;98991.88;;;10.93;78.21
10587;BME280;5341;47.606;7.576;2023-11-19T07:29:30;99001.56;;;10.94;78.44
10587;BME280;5341;47.606;7.576;2023-11-19T07:31:58;99000.75;;;10.94;78.34
10587;BME280;5341;47.606;7.576;2023-11-19T07:34:27;98998.91;;;10.94;78.33
10587;BME280;5341;47.606;7.576;2023-11-19T07:36:56;99008.41;;;10.97;78.10
10587;BME280;5341;47.606;7.576;2023-11-19T07:39:28;99012.75;;;10.98;78.03
10587;BME280;5341;47.606;7.576;2023-11-19T07:42:02;99018.94;;;10.98;78.23
10587;BME280;5341;47.606;7.576;2023-11-19T07:44:29;99015.25;;;10.99;78.15
10587;BME280;5341;47.606;7.576;2023-11-19T07:46:57;99012.56;;;10.99;78.07
10587;BME280;5341;47.606;7.576;2023-11-19T07:49:25;99016.91;;;11.00;77.88
10587;BME280;5341;47.606;7.576;2023-11-19T07:51:53;99012.19;;;11.02;78.31
10587;BME280;5341;47.606;7.576;2023-11-19T07:54:22;99018.22;;;11.04;79.03
10587;BME280;5341;47.606;7.576;2023-11-19T07:56:50;99028.75;;;11.06;78.76
10587;BME280;5341;47.606;7.576;2023-11-19T07:59:17;99019.53;;;11.08;78.46
10587;BME280;5341;47.606;7.576;2023-11-19T08:01:44;99029.22;;;11.09;78.57
10587;BME280;5341;47.606;7.576;2023-11-19T08:04:12;99025.53;;;11.10;78.49
10587;BME280;5341;47.606;7.576;2023-11-19T08:06:39;99027.19;;;11.11;78.38
10587;BME280;5341;47.606;7.576;2023-11-19T08:09:07;99017.97;;;11.14;79.02
10587;BME280;5341;47.606;7.576;2023-11-19T08:11:41;99016.78;;;11.17;78.19
10587;BME280;5341;47.606;7.576;2023-11-19T08:14:08;99020.13;;;11.19;78.85
10587;BME280;5341;47.606;7.576;2023-11-19T08:16:35;99015.41;;;11.21;78.78
10587;BME280;5341;47.606;7.576;2023-11-19T08:19:03;99014.03;;;11.25;78.41
10587;BME280;5341;47.606;7.576;2023-11-19T08:21:31;99017.22;;;11.28;79.34
10587;BME280;5341;47.606;7.576;2023-11-19T08:23:58;99001.59;;;11.32;79.73
10587;BME280;5341;47.606;7.576;2023-11-19T08:26:26;99006.59;;;11.35;80.05
10587;BME280;5341;47.606;7.576;2023-11-19T08:28:55;99010.41;;;11.40;79.66
10587;BME280;5341;47.606;7.576;2023-11-19T08:31:24;99015.22;;;11.45;80.69
10587;BME280;5341;47.606;7.576;2023-11-19T08:33:52;99020.00;;;11.50;80.47
10587;BME280;5341;47.606;7.576;2023-11-19T08:36:20;99025.84;;;11.53;80.25
10587;BME280;5341;47.606;7.576;2023-11-19T08:38:47;99027.50;;;11.54;80.14
10587;BME280;5341;47.606;7.576;2023-11-19T08:41:16;99030.00;;;11.56;80.06
10587;BME280;5341;47.606;7.576;2023-11-19T08:43:44;99036.84;;;11.58;80.41
10587;BME280;5341;47.606;7.576;2023-11-19T08:46:13;99037.47;;;11.60;80.71
10587;BME280;5341;47.606;7.576;2023-11-19T08:48:41;99040.16;;;11.60;80.47
10587;BME280;5341;47.606;7.576;2023-11-19T08:51:08;99041.63;;;11.63;80.73
10587;BME280;5341;47.606;7.576;2023-11-19T08:53:37;99039.81;;;11.63;81.00
10587;BME280;5341;47.606;7.576;2023-11-19T08:56:05;99038.81;;;11.64;81.37
10587;BME280;5341;47.606;7.576;2023-11-19T08:58:33;99035.94;;;11.66;80.95
10587;BME280;5341;47.606;7.576;2023-11-19T09:01:01;99041.13;;;11.67;81.11
10587;BME280;5341;47.606;7.576;2023-11-19T09:03:32;99028.34;;;11.69;81.62
10587;BME280;5341;47.606;7.576;2023-11-19T09:06:00;99030.84;;;11.71;81.49
10587;BME280;5341;47.606;7.576;2023-11-19T09:08:28;99020.78;;;11.73;82.04
10587;BME280;5341;47.606;7.576;2023-11-19T09:10:56;99028.81;;;11.73;82.06
10587;BME280;5341;47.606;7.576;2023-11-19T09:13:23;99029.50;;;11.75;81.91
10587;BME280;5341;47.606;7.576;2023-11-19T09:15:51;99030.97;;;11.78;82.32
10587;BME280;5341;47.606;7.576;2023-11-19T09:18:19;99029.13;;;11.78;82.21
10587;BME280;5341;47.606;7.576;2023-11-19T09:20:48;99032.47;;;11.80;82.90
10587;BME280;5341;47.606;7.576;2023-11-19T09:23:15;99036.81;;;11.81;82.72
10587;BME280;5341;47.606;7.576;2023-11-19T09:25:43;99033.94;;;11.83;83.14
10587;BME280;5341;47.606;7.576;2023-11-19T09:28:11;99032.09;;;11.83;82.81
10587;BME280;5341;47.606;7.576;2023-11-19T09:30:39;99039.94;;;11.85;82.66
10587;BME280;5341;47.606;7.576;2023-11-19T09:33:06;99033.56;;;11.86;83.43
10587;BME280;5341;47.606;7.576;2023-11-19T09:35:33;99037.75;;;11.88;83.79
10587;BME280;5341;47.606;7.576;2023-11-19T09:38:03;99040.25;;;11.90;83.95
10587;BME280;5341;47.606;7.576;2023-11-19T09:40:32;99037.19;;;11.93;83.59
10587;BME280;5341;47.606;7.576;2023-11-19T09:43:00;99041.34;;;11.95;84.37
10587;BME280;5341;47.606;7.576;2023-11-19T09:45:28;99049.84;;;11.99;84.88
10587;BME280;5341;47.606;7.576;2023-11-19T09:47:57;99050.34;;;12.02;85.02
10587;BME280;5341;47.606;7.576;2023-11-19T09:50:25;99056.59;;;12.10;86.42
10587;BME280;5341;47.606;7.576;2023-11-19T09:52:53;99040.81;;;12.15;86.46
10587;BME280;5341;47.606;7.576;2023-11-19T09:55:23;99048.66;;;12.16;86.28
10587;BME280;5341;47.606;7.576;2023-11-19T09:57:53;99046.44;;;12.20;86.75
10587;BME280;5341;47.606;7.576;2023-11-19T10:00:21;99052.63;;;12.20;86.44
10587;BME280;5341;47.606;7.576;2023-11-19T10:02:50;99050.59;;;12.22;86.35
10587;BME280;5341;47.606;7.576;2023-11-19T10:05:20;99045.91;;;12.24;86.63
10587;BME280;5341;47.606;7.576;2023-11-19T10:07:50;99052.94;;;12.25;86.40
10587;BME280;5341;47.606;7.576;2023-11-19T10:10:18;99050.06;;;12.27;86.51
10587;BME280;5341;47.606;7.576;2023-11-19T10:12:47;99052.53;;;12.28;86.57
10587;BME280;5341;47.606;7.576;2023-11-19T10:15:20;99052.53;;;12.28;87.42
10587;BME280;5341;47.606;7.576;2023-11-19T10:17:49;99048.84;;;12.29;87.00
10587;BME280;5341;47.606;7.576;2023-11-19T10:20:17;99043.28;;;12.31;87.71
10587;BME280;5341;47.606;7.576;2023-11-19T10:22:45;99048.28;;;12.34;87.55
10587;BME280;5341;47.606;7.576;2023-11-19T10:25:22;99052.47;;;12.37;87.91
10587;BME280;5341;47.606;7.576;2023-11-19T10:27:52;99047.91;;;12.37;88.17
10587;BME280;5341;47.606;7.576;2023-11-19T10:30:21;99038.84;;;12.38;87.99
10587;BME280;5341;47.606;7.576;2023-11-19T10:33:03;99030.44;;;12.41;88.24
10587;BME280;5341;47.606;7.576;2023-11-19T10:35:31;99031.25;;;12.42;88.47
10587;BME280;5341;47.606;7.576;2023-11-19T10:38:00;99031.91;;;12.44;88.69
10587;BME280;5341;47.606;7.576;2023-11-19T10:40:38;99031.50;;;12.47;88.67
10587;BME280;5341;47.606;7.576;2023-11-19T10:43:09;99033.22;;;12.48;89.22
10587;BME280;5341;47.606;7.576;2023-11-19T10:45:37;99019.59;;;12.49;89.33
10587;BME280;5341;47.606;7.576;2023-11-19T10:48:05;99021.06;;;12.52;89.36
10587;BME280;5341;47.606;7.576;2023-11-19T10:50:34;99013.84;;;12.52;89.45
10587;BME280;5341;47.606;7.576;2023-11-19T10:53:02;99002.09;;;12.53;89.52
10587;BME280;5341;47.606;7.576;2023-11-19T10:55:31;99000.88;;;12.56;89.52
10587;BME280;5341;47.606;7.576;2023-11-19T10:58:02;98997.38;;;12.55;90.17
10587;BME280;5341;47.606;7.576;2023-11-19T11:00:38;98992.84;;;12.56;90.13
10587;BME280;5341;47.606;7.576;2023-11-19T11:03:11;98991.81;;;12.57;90.40
10587;BME280;5341;47.606;7.576;2023-11-19T11:05:39;98977.38;;;12.58;90.54
10587;BME280;5341;47.606;7.576;2023-11-19T11:08:08;98969.13;;;12.59;90.63
10587;BME280;5341;47.606;7.576;2023-11-19T11:10:44;98970.16;;;12.58;90.66
10587;BME280;5341;47.606;7.576;2023-11-19T11:13:14;98974.50;;;12.59;90.81
10587;BME280;5341;47.606;7.576;2023-11-19T11:15:43;98973.50;;;12.60;91.38
10587;BME280;5341;47.606;7.576;2023-11-19T11:18:13;98964.25;;;12.63;90.86
10587;BME280;5341;47.606;7.576;2023-11-19T11:20:41;98967.75;;;12.64;91.16
10587;BME280;5341;47.606;7.576;2023-11-19T11:23:39;98973.56;;;12.67;91.35
10587;BME280;5341;47.606;7.576;2023-11-19T11:29:14;98978.09;;;12.67;91.09
10587;BME280;5341;47.606;7.576;2023-11-19T11:31:51;98973.16;;;12.70;91.68
10587;BME280;5341;47.606;7.576;2023-11-19T11:34:46;98978.81;;;12.75;91.98
10587;BME280;5341;47.606;7.576;2023-11-19T11:37:19;98976.56;;;12.79;92.65
10587;BME280;5341;47.606;7.576;2023-11-19T11:39:50;98981.34;;;12.83;92.42
10587;BME280;5341;47.606;7.576;2023-11-19T11:42:36;98976.25;;;12.88;92.71
10587;BME280;5341;47.606;7.576;2023-11-19T11:45:06;98966.34;;;12.89;92.49
10587;BME280;5341;47.606;7.576;2023-11-19T11:48:08;98966.59;;;12.94;92.71
10587;BME280;5341;47.606;7.576;2023-11-19T11:50:55;98966.41;;;12.96;93.04
10587;BME280;5341;47.606;7.576;2023-11-19T11:53:25;98962.72;;;12.97;92.58
10587;BME280;5341;47.606;7.576;2023-11-19T11:56:00;98953.25;;;13.01;92.87
10587;BME280;5341;47.606;7.576;2023-11-19T11:58:31;98954.72;;;13.03;93.34
10587;BME280;5341;47.606;7.576;2023-11-19T12:01:02;98948.13;;;13.06;92.83
10587;BME280;5341;47.606;7.576;2023-11-19T12:03:33;98959.31;;;13.09;93.43
10587;BME280;5341;47.606;7.576;2023-11-19T12:06:01;98951.28;;;13.09;93.29
10587;BME280;5341;47.606;7.576;2023-11-19T12:08:29;98952.72;;;13.12;93.19
10587;BME280;5341;47.606;7.576;2023-11-19T12:10:58;98945.31;;;13.14;93.45
10587;BME280;5341;47.606;7.576;2023-11-19T12:13:52;98936.84;;;13.17;93.79
10587;BME280;5341;47.606;7.576;2023-11-19T12:16:21;98942.06;;;13.18;93.98
10587;BME280;5341;47.606;7.576;2023-11-19T12:18:51;98944.19;;;13.23;94.59
10587;BME280;5341;47.606;7.576;2023-11-19T12:21:30;98952.66;;;13.27;94.76
10587;BME280;5341;47.606;7.576;2023-11-19T12:23:59;98957.66;;;13.30;95.05
10587;BME280;5341;47.606;7.576;2023-11-19T12:26:34;98957.91;;;13.35;95.99
10587;BME280;5341;47.606;7.576;2023-11-19T12:29:02;98958.78;;;13.42;96.61
10587;BME280;5341;47.606;7.576;2023-11-19T12:31:34;98952.81;;;13.46;96.97
10587;BME280;5341;47.606;7.576;2023-11-19T12:34:11;98949.75;;;13.49;96.81
10587;BME280;5341;47.606;7.576;2023-11-19T12:36:40;98954.72;;;13.53;97.19
10587;BME280;5341;47.606;7.576;2023-11-19T12:39:12;98946.09;;;13.57;97.14
10587;BME280;5341;47.606;7.576;2023-11-19T12:41:53;98939.47;;;13.60;96.89
10587;BME280;5341;47.606;7.576;2023-11-19T12:44:22;98940.09;;;13.62;96.44
10587;BME280;5341;47.606;7.576;2023-11-19T12:47:00;98936.63;;;13.68;96.69
10587;BME280;5341;47.606;7.576;2023-11-19T12:49:30;98938.53;;;13.74;97.24
10587;BME280;5341;47.606;7.576;2023-11-19T12:51:58;98933.56;;;13.77;96.98
10587;BME280;5341;47.606;7.576;2023-11-19T12:54:36;98929.66;;;13.80;97.10
10587;BME280;5341;47.606;7.576;2023-11-19T12:57:05;98932.78;;;13.84;97.51
10587;BME280;5341;47.606;7.576;2023-11-19T12:59:34;98928.03;;;13.86;97.65
10587;BME280;5341;47.606;7.576;2023-11-19T13:02:02;98934.03;;;13.88;97.30
10587;BME280;5341;47.606;7.576;2023-11-19T13:04:33;98942.09;;;13.88;97.31
10587;BME280;5341;47.606;7.576;2023-11-19T13:07:01;98941.91;;;13.89;97.51
10587;BME280;5341;47.606;7.576;2023-11-19T13:09:30;98943.38;;;13.92;97.80
10587;BME280;5341;47.606;7.576;2023-11-19T13:11:57;98942.34;;;13.93;97.62
10587;BME280;5341;47.606;7.576;2023-11-19T13:14:36;98946.09;;;13.98;97.87
10587;BME280;5341;47.606;7.576;2023-11-19T13:17:04;98954.38;;;13.97;97.33
10587;BME280;5341;47.606;7.576;2023-11-19T13:19:33;98948.78;;;13.98;97.39
10587;BME280;5341;47.606;7.576;2023-11-19T13:22:01;98934.31;;;13.99;97.12
10587;BME280;5341;47.606;7.576;2023-11-19T13:24:28;98935.13;;;14.00;97.12